Time;durP1;ratioP1;P1;durP2;ratioP2;P2;SDS_P1;SDS_P2;PMS_P1;PMS_P2;Temp;Humidity;BMP_temperature;BMP_pressure;BME280_temperature;BME280_humidity;BME280_pressure;Samples;Min_cycle;Max_cycle;Signal;HPM_P1;HPM_P2
2022/10/21 00:01:47;;;;;;;1.75;0.45;;;;;;;;;;5038827;28;20049;-72
2022/10/21 00:04:14;;;;;;;6.70;0.63;;;;;;;;;;5021932;28;20103;-72
2022/10/21 00:06:40;;;;;;;5.60;0.98;;;;;;;;;;5038670;28;20072;-70
2022/10/21 00:09:07;;;;;;;3.50;0.70;;;;;;;;;;5040121;28;20092;-71
2022/10/21 00:11:33;;;;;;;3.38;0.82;;;;;;;;;;5038415;28;20044;-73
2022/10/21 00:14:00;;;;;;;3.78;0.60;;;;;;;;;;5041151;28;20731;-70
2022/10/21 00:16:28;;;;;;;8.93;1.23;;;;;;;;;;5022278;28;20536;-70
2022/10/21 00:18:54;;;;;;;5.88;1.58;;;;;;;;;;5042149;28;20102;-71
2022/10/21 00:21:22;;;;;;;7.05;0.95;;;;;;;;;;5042069;28;20052;-70
2022/10/21 00:23:51;;;;;;;2.92;0.52;;;;;;;;;;5040182;28;20055;-70
2022/10/21 00:26:19;;;;;;;10.82;0.98;;;;;;;;;;5040795;28;20064;-72
2022/10/21 00:28:46;;;;;;;9.63;3.65;;;;;;;;;;5027550;28;20132;-70
2022/10/21 00:31:14;;;;;;;12.18;2.85;;;;;;;;;;5042605;28;20811;-70
2022/10/21 00:33:41;;;;;;;7.22;1.08;;;;;;;;;;5041215;28;20045;-72
2022/10/21 00:36:13;;;;;;;5.03;0.88;;;;;;;;;;5041771;28;20234;-71
2022/10/21 00:38:40;;;;;;;7.55;1.40;;;;;;;;;;5040691;28;20098;-66
2022/10/21 00:41:07;;;;;;;5.85;1.20;;;;;;;;;;5052822;28;20371;-66
2022/10/21 00:43:52;;;;;;;6.53;1.67;;;;;;;;;;5055427;28;20160;-69
2022/10/21 00:46:18;;;;;;;8.40;1.38;;;;;;;;;;5051445;28;20050;-69
2022/10/21 00:48:48;;;;;;;5.63;1.55;;;;;;;;;;5053640;28;20114;-68
2022/10/21 00:51:17;;;;;;;11.57;1.75;;;;;;;;;;5054329;28;20142;-67
2022/10/21 00:53:48;;;;;;;8.90;1.88;;;;;;;;;;5053413;28;20045;-66
2022/10/21 00:56:19;;;;;;;7.90;1.88;;;;;;;;;;5051565;28;20365;-69
2022/10/21 00:58:46;;;;;;;13.95;2.05;;;;;;;;;;5055397;28;20055;-72
2022/10/21 01:01:13;;;;;;;9.98;1.52;;;;;;;;;;5057764;28;20135;-70
2022/10/21 01:03:40;;;;;;;10.35;1.90;;;;;;;;;;5055143;28;20477;-70
2022/10/21 01:06:07;;;;;;;9.63;1.50;;;;;;;;;;5056298;28;20095;-69
2022/10/21 01:08:35;;;;;;;7.82;1.25;;;;;;;;;;5057269;28;20825;-68
2022/10/21 01:11:01;;;;;;;4.57;1.17;;;;;;;;;;5055011;28;20999;-70
2022/10/21 01:13:36;;;;;;;12.35;1.52;;;;;;;;;;5054915;28;20101;-69
2022/10/21 01:16:03;;;;;;;21.33;2.03;;;;;;;;;;5053060;28;20177;-71
2022/10/21 01:18:48;;;;;;;16.45;2.22;;;;;;;;;;5056404;28;20040;-70
2022/10/21 01:21:50;;;;;;;12.23;1.52;;;;;;;;;;5057482;28;20037;-70
2022/10/21 01:24:16;;;;;;;12.77;1.77;;;;;;;;;;4986346;28;20060;-71
2022/10/21 01:26:56;;;;;;;7.93;1.80;;;;;;;;;;5040780;28;20047;-69
2022/10/21 01:29:35;;;;;;;9.25;1.70;;;;;;;;;;5057805;28;20055;-69
2022/10/21 01:32:08;;;;;;;12.63;1.83;;;;;;;;;;5061910;28;20056;-69
2022/10/21 01:34:41;;;;;;;13.27;2.27;;;;;;;;;;5054430;28;20050;-69
2022/10/21 01:37:11;;;;;;;8.18;2.00;;;;;;;;;;5055225;28;21458;-69
2022/10/21 01:39:48;;;;;;;15.68;3.00;;;;;;;;;;5088439;27;20089;-69
2022/10/21 01:42:14;;;;;;;8.40;2.35;;;;;;;;;;5057924;28;20037;-69
2022/10/21 01:44:50;;;;;;;9.80;2.20;;;;;;;;;;5055788;28;20048;-69
2022/10/21 01:47:22;;;;;;;11.57;2.08;;;;;;;;;;5054896;28;20036;-68
2022/10/21 01:49:53;;;;;;;10.25;2.33;;;;;;;;;;5057680;28;20606;-69
2022/10/21 01:52:20;;;;;;;9.00;2.05;;;;;;;;;;5090499;27;20086;-69
2022/10/21 01:54:58;;;;;;;11.93;2.15;;;;;;;;;;5053670;28;20505;-69
2022/10/21 01:57:26;;;;;;;9.38;2.30;;;;;;;;;;5055331;28;20129;-69
2022/10/21 01:59:54;;;;;;;9.90;2.33;;;;;;;;;;5056261;28;20163;-69
2022/10/21 02:02:22;;;;;;;15.02;2.58;;;;;;;;;;5053727;28;20733;-70
2022/10/21 02:04:50;;;;;;;7.78;2.55;;;;;;;;;;5055130;28;20037;-69
2022/10/21 02:07:16;;;;;;;7.80;2.45;;;;;;;;;;5057126;28;20037;-69
2022/10/21 02:09:43;;;;;;;13.65;2.42;;;;;;;;;;5055604;28;20051;-71
2022/10/21 02:12:10;;;;;;;10.55;2.08;;;;;;;;;;5062784;28;20742;-69
2022/10/21 02:14:39;;;;;;;7.43;1.90;;;;;;;;;;5056817;28;20051;-69
2022/10/21 02:17:06;;;;;;;14.07;2.42;;;;;;;;;;5059135;28;20036;-69
2022/10/21 02:19:33;;;;;;;7.70;2.20;;;;;;;;;;5053340;28;20062;-70
2022/10/21 02:22:00;;;;;;;7.78;1.85;;;;;;;;;;5057323;28;20087;-70
2022/10/21 02:24:27;;;;;;;8.13;1.83;;;;;;;;;;5057116;28;20539;-69
2022/10/21 02:26:54;;;;;;;9.30;1.88;;;;;;;;;;5058483;28;20067;-69
2022/10/21 02:29:22;;;;;;;8.18;2.45;;;;;;;;;;5056735;28;20041;-69
2022/10/21 02:32:11;;;;;;;10.57;2.58;;;;;;;;;;5057047;28;20059;-69
2022/10/21 02:34:57;;;;;;;6.88;1.65;;;;;;;;;;5055050;28;20045;-70
2022/10/21 02:37:33;;;;;;;3.95;1.55;;;;;;;;;;5029220;28;20068;-68
2022/10/21 02:40:04;;;;;;;9.52;2.00;;;;;;;;;;5055668;28;20032;-70
2022/10/21 02:42:33;;;;;;;3.92;1.55;;;;;;;;;;5056574;28;20043;-73
2022/10/21 02:45:01;;;;;;;4.07;1.40;;;;;;;;;;5054129;28;20455;-70
2022/10/21 02:47:28;;;;;;;4.32;1.30;;;;;;;;;;5055753;28;20044;-70
2022/10/21 02:49:55;;;;;;;9.18;1.67;;;;;;;;;;5054088;28;20533;-69
2022/10/21 02:52:21;;;;;;;6.13;1.30;;;;;;;;;;5055307;28;20117;-71
2022/10/21 02:54:48;;;;;;;5.25;1.30;;;;;;;;;;5054137;28;20051;-70
2022/10/21 02:57:15;;;;;;;4.88;1.60;;;;;;;;;;5053654;28;20190;-71
2022/10/21 02:59:41;;;;;;;5.75;1.52;;;;;;;;;;5055576;28;20685;-70
2022/10/21 03:02:08;;;;;;;7.10;1.73;;;;;;;;;;5052866;28;20120;-71
2022/10/21 03:04:34;;;;;;;7.35;2.63;;;;;;;;;;5082976;27;20037;-70
2022/10/21 03:07:01;;;;;;;6.82;2.47;;;;;;;;;;5054544;28;20126;-70
2022/10/21 03:09:28;;;;;;;4.53;1.90;;;;;;;;;;5049829;28;20519;-70
2022/10/21 03:11:54;;;;;;;4.97;1.65;;;;;;;;;;5057169;28;20037;-70
2022/10/21 03:14:21;;;;;;;9.52;1.90;;;;;;;;;;5054888;28;20037;-73
2022/10/21 03:16:47;;;;;;;5.45;1.60;;;;;;;;;;5054701;28;20052;-70
2022/10/21 03:19:14;;;;;;;5.25;1.50;;;;;;;;;;5052566;28;20078;-71
2022/10/21 03:21:40;;;;;;;5.28;1.23;;;;;;;;;;5062314;28;20037;-71
2022/10/21 03:24:07;;;;;;;7.18;1.50;;;;;;;;;;5088700;27;20060;-70
2022/10/21 03:26:34;;;;;;;6.32;1.48;;;;;;;;;;5086001;27;22370;-71
2022/10/21 03:29:00;;;;;;;6.50;1.73;;;;;;;;;;5088698;27;20051;-71
2022/10/21 03:31:27;;;;;;;5.82;1.60;;;;;;;;;;5051582;28;20040;-70
2022/10/21 03:33:54;;;;;;;5.05;1.40;;;;;;;;;;5055122;28;20116;-69
2022/10/21 03:36:20;;;;;;;4.97;1.55;;;;;;;;;;5085044;27;20143;-76
2022/10/21 03:38:47;;;;;;;5.28;1.65;;;;;;;;;;5055245;28;20540;-70
2022/10/21 03:41:13;;;;;;;9.00;1.58;;;;;;;;;;5054728;28;20052;-71
2022/10/21 03:43:40;;;;;;;15.52;2.08;;;;;;;;;;5053987;28;20040;-72
2022/10/21 03:46:06;;;;;;;7.75;1.80;;;;;;;;;;5056788;28;20797;-69
2022/10/21 03:48:33;;;;;;;7.63;1.77;;;;;;;;;;5085668;27;20056;-69
2022/10/21 03:51:00;;;;;;;6.90;1.50;;;;;;;;;;5055918;28;20051;-71
2022/10/21 03:53:26;;;;;;;5.43;1.60;;;;;;;;;;5068223;28;20396;-69
2022/10/21 03:55:53;;;;;;;4.85;1.60;;;;;;;;;;5052164;28;20128;-70
2022/10/21 03:58:20;;;;;;;7.25;1.77;;;;;;;;;;5053193;28;21014;-71
2022/10/21 04:00:51;;;;;;;4.93;1.50;;;;;;;;;;5053840;28;20041;-70
2022/10/21 04:03:17;;;;;;;7.90;1.80;;;;;;;;;;5055614;28;20140;-70
2022/10/21 04:05:44;;;;;;;4.43;1.88;;;;;;;;;;5054283;28;20456;-71
2022/10/21 04:08:10;;;;;;;5.72;1.60;;;;;;;;;;5055659;28;20048;-70
2022/10/21 04:10:37;;;;;;;9.32;1.83;;;;;;;;;;5055886;28;20036;-70
2022/10/21 04:13:04;;;;;;;10.38;1.65;;;;;;;;;;5054755;28;20405;-70
2022/10/21 04:15:30;;;;;;;5.57;1.80;;;;;;;;;;5054648;28;20610;-70
2022/10/21 04:17:57;;;;;;;9.88;1.83;;;;;;;;;;5084926;27;20042;-71
2022/10/21 04:20:23;;;;;;;6.38;1.63;;;;;;;;;;5053765;28;20418;-70
2022/10/21 04:22:50;;;;;;;5.45;1.80;;;;;;;;;;5053405;28;20040;-70
2022/10/21 04:25:17;;;;;;;5.05;1.70;;;;;;;;;;5055069;28;20501;-70
2022/10/21 04:27:43;;;;;;;4.53;1.92;;;;;;;;;;5052690;28;20103;-70
2022/10/21 04:30:10;;;;;;;7.60;1.98;;;;;;;;;;5052884;28;20032;-71
2022/10/21 04:32:56;;;;;;;6.05;2.20;;;;;;;;;;5072523;28;20040;-71
2022/10/21 04:35:23;;;;;;;6.13;1.80;;;;;;;;;;5070569;28;20050;-71
2022/10/21 04:37:49;;;;;;;5.07;1.75;;;;;;;;;;5072498;28;20039;-71
2022/10/21 04:40:16;;;;;;;6.15;1.80;;;;;;;;;;5073698;28;20217;-69
2022/10/21 04:42:47;;;;;;;6.68;1.73;;;;;;;;;;5071809;28;20117;-70
2022/10/21 04:45:13;;;;;;;6.20;1.70;;;;;;;;;;5072306;28;20135;-71
2022/10/21 04:47:40;;;;;;;5.78;1.67;;;;;;;;;;5072035;28;20073;-71
2022/10/21 04:50:07;;;;;;;6.50;1.90;;;;;;;;;;5072391;28;20042;-69
2022/10/21 04:52:33;;;;;;;6.40;1.52;;;;;;;;;;5073571;28;21027;-70
2022/10/21 04:55:00;;;;;;;5.45;1.63;;;;;;;;;;5072109;28;20522;-70
2022/10/21 04:57:27;;;;;;;5.57;1.73;;;;;;;;;;5070091;28;20044;-71
2022/10/21 04:59:53;;;;;;;8.18;1.77;;;;;;;;;;5072922;28;20097;-69
2022/10/21 05:02:20;;;;;;;3.63;1.40;;;;;;;;;;5071836;28;20512;-70
2022/10/21 05:04:46;;;;;;;4.07;1.27;;;;;;;;;;5056817;28;20044;-70
2022/10/21 05:07:13;;;;;;;4.63;1.67;;;;;;;;;;5052322;28;20036;-68
2022/10/21 05:09:40;;;;;;;6.53;1.50;;;;;;;;;;5054562;28;20063;-70
2022/10/21 05:12:06;;;;;;;4.72;1.65;;;;;;;;;;5051280;28;20460;-67
2022/10/21 05:14:33;;;;;;;6.53;1.83;;;;;;;;;;5052134;28;20045;-70
2022/10/21 05:17:00;;;;;;;7.35;1.90;;;;;;;;;;5052742;28;20045;-69
2022/10/21 05:19:26;;;;;;;5.43;1.83;;;;;;;;;;5052393;28;20505;-69
2022/10/21 05:21:53;;;;;;;6.03;1.80;;;;;;;;;;5053624;28;20060;-69
2022/10/21 05:24:19;;;;;;;7.35;1.80;;;;;;;;;;5053546;28;20128;-69
2022/10/21 05:26:46;;;;;;;4.63;1.50;;;;;;;;;;5052625;28;20203;-70
2022/10/21 05:29:13;;;;;;;4.35;1.65;;;;;;;;;;5085244;28;20045;-69
2022/10/21 05:31:39;;;;;;;4.53;1.50;;;;;;;;;;5051610;28;20040;-68
2022/10/21 05:34:06;;;;;;;3.75;1.40;;;;;;;;;;5051490;28;20045;-68
2022/10/21 05:36:32;;;;;;;4.95;1.45;;;;;;;;;;5051246;28;20048;-69
2022/10/21 05:38:59;;;;;;;5.30;1.50;;;;;;;;;;5051681;28;20060;-67
2022/10/21 05:41:26;;;;;;;4.68;1.40;;;;;;;;;;5084164;28;20043;-68
2022/10/21 05:43:52;;;;;;;3.70;1.25;;;;;;;;;;5052549;28;20067;-69
2022/10/21 05:46:19;;;;;;;4.70;1.45;;;;;;;;;;5054986;28;20483;-70
2022/10/21 05:48:45;;;;;;;4.10;1.30;;;;;;;;;;5056591;28;20033;-68
2022/10/21 05:51:12;;;;;;;5.15;1.45;;;;;;;;;;5055704;28;20396;-68
2022/10/21 05:53:39;;;;;;;4.95;1.20;;;;;;;;;;5055651;28;20044;-70
2022/10/21 05:56:06;;;;;;;3.72;1.42;;;;;;;;;;5057203;28;20044;-69
2022/10/21 05:58:34;;;;;;;8.07;1.70;;;;;;;;;;5053441;28;20095;-70
2022/10/21 06:01:01;;;;;;;6.90;1.77;;;;;;;;;;5056887;28;20074;-72
2022/10/21 06:03:28;;;;;;;6.13;1.40;;;;;;;;;;5055935;28;20045;-71
2022/10/21 06:05:56;;;;;;;7.40;1.83;;;;;;;;;;5056446;28;20429;-70
2022/10/21 06:08:23;;;;;;;5.90;1.38;;;;;;;;;;5053973;28;20047;-70
2022/10/21 06:10:49;;;;;;;8.93;1.77;;;;;;;;;;5058086;28;20046;-70
2022/10/21 06:13:16;;;;;;;3.38;1.20;;;;;;;;;;5087575;27;20132;-70
2022/10/21 06:15:42;;;;;;;9.23;1.67;;;;;;;;;;5054052;28;21140;-70
2022/10/21 06:18:09;;;;;;;6.43;1.42;;;;;;;;;;5055524;28;20137;-69
2022/10/21 06:20:36;;;;;;;3.90;1.33;;;;;;;;;;5057584;28;20046;-70
2022/10/21 06:23:02;;;;;;;6.30;1.55;;;;;;;;;;5057790;28;20501;-69
2022/10/21 06:25:29;;;;;;;6.25;1.60;;;;;;;;;;5062454;28;20083;-70
2022/10/21 06:27:55;;;;;;;7.40;1.73;;;;;;;;;;5055271;28;20043;-68
2022/10/21 06:30:22;;;;;;;6.75;1.88;;;;;;;;;;5054611;28;20079;-69
2022/10/21 06:32:49;;;;;;;5.97;1.75;;;;;;;;;;5088383;27;20039;-70
2022/10/21 06:35:15;;;;;;;3.63;1.25;;;;;;;;;;5054900;28;20097;-70
2022/10/21 06:37:42;;;;;;;6.97;1.50;;;;;;;;;;5055904;28;20078;-68
2022/10/21 06:40:09;;;;;;;5.25;1.35;;;;;;;;;;5056265;28;20047;-68
2022/10/21 06:42:35;;;;;;;6.57;1.80;;;;;;;;;;5055036;28;20525;-70
2022/10/21 06:45:02;;;;;;;5.60;1.60;;;;;;;;;;5054906;28;20044;-69
2022/10/21 06:47:28;;;;;;;4.28;1.55;;;;;;;;;;5083489;27;20048;-68
2022/10/21 06:49:55;;;;;;;6.32;1.70;;;;;;;;;;5088331;27;20036;-70
2022/10/21 06:52:22;;;;;;;9.10;1.55;;;;;;;;;;5056930;28;20047;-70
2022/10/21 06:54:48;;;;;;;7.00;1.33;;;;;;;;;;5055579;28;20063;-68
2022/10/21 06:57:15;;;;;;;8.90;1.70;;;;;;;;;;5054254;28;20569;-70
2022/10/21 06:59:41;;;;;;;7.35;1.63;;;;;;;;;;5054707;28;20055;-70
2022/10/21 07:02:09;;;;;;;4.72;1.40;;;;;;;;;;5056755;28;20059;-71
2022/10/21 07:04:35;;;;;;;5.50;1.55;;;;;;;;;;5054276;28;21771;-70
2022/10/21 07:07:02;;;;;;;4.10;1.48;;;;;;;;;;5091022;27;20040;-68
2022/10/21 07:09:29;;;;;;;6.38;1.70;;;;;;;;;;5058107;28;20041;-70
2022/10/21 07:11:56;;;;;;;5.95;1.40;;;;;;;;;;5053994;28;20036;-70
2022/10/21 07:14:24;;;;;;;6.22;1.50;;;;;;;;;;5051849;28;20843;-71
2022/10/21 07:16:52;;;;;;;8.55;1.90;;;;;;;;;;5055609;28;20110;-70
2022/10/21 07:19:18;;;;;;;6.28;1.70;;;;;;;;;;5054148;28;20064;-69
2022/10/21 07:21:45;;;;;;;6.60;1.45;;;;;;;;;;5086717;27;20039;-69
2022/10/21 07:24:12;;;;;;;5.18;1.48;;;;;;;;;;5084612;27;20638;-69
2022/10/21 07:26:39;;;;;;;6.80;1.60;;;;;;;;;;5086044;27;20397;-68
2022/10/21 07:29:06;;;;;;;7.38;1.70;;;;;;;;;;5053657;28;20037;-69
2022/10/21 07:31:34;;;;;;;5.97;1.67;;;;;;;;;;5053707;28;20784;-66
2022/10/21 07:34:01;;;;;;;7.28;1.80;;;;;;;;;;5056560;28;20464;-68
2022/10/21 07:36:28;;;;;;;7.43;1.98;;;;;;;;;;5086238;27;20149;-69
2022/10/21 07:38:57;;;;;;;4.50;1.50;;;;;;;;;;5052573;28;20041;-70
2022/10/21 07:41:27;;;;;;;5.18;1.58;;;;;;;;;;5053086;28;20096;-69
2022/10/21 07:43:54;;;;;;;4.60;1.30;;;;;;;;;;5056032;28;20062;-70
2022/10/21 07:46:21;;;;;;;8.40;1.77;;;;;;;;;;5052681;28;20045;-70
2022/10/21 07:48:48;;;;;;;7.65;1.70;;;;;;;;;;5085844;27;20051;-70
2022/10/21 07:51:15;;;;;;;4.78;1.55;;;;;;;;;;5053685;28;20101;-70
2022/10/21 07:53:42;;;;;;;8.38;1.73;;;;;;;;;;5087514;27;20040;-70
2022/10/21 07:56:14;;;;;;;5.28;1.55;;;;;;;;;;5052486;28;20064;-70
2022/10/21 07:58:41;;;;;;;4.65;1.60;;;;;;;;;;5052542;28;20037;-70
2022/10/21 08:01:08;;;;;;;7.60;1.70;;;;;;;;;;5054747;28;20378;-68
2022/10/21 08:03:35;;;;;;;8.68;1.35;;;;;;;;;;5044148;28;20155;-68
2022/10/21 08:06:02;;;;;;;5.05;1.60;;;;;;;;;;5053254;28;20417;-71
2022/10/21 08:08:28;;;;;;;8.85;1.75;;;;;;;;;;5051937;28;20041;-69
2022/10/21 08:10:55;;;;;;;3.78;1.13;;;;;;;;;;5086812;27;20107;-69
2022/10/21 08:13:22;;;;;;;7.07;1.77;;;;;;;;;;5060280;28;20054;-69
2022/10/21 08:15:52;;;;;;;8.50;1.42;;;;;;;;;;5054758;28;20045;-70
2022/10/21 08:18:20;;;;;;;4.28;1.55;;;;;;;;;;5084179;27;20067;-70
2022/10/21 08:20:47;;;;;;;4.93;1.55;;;;;;;;;;5052047;28;20507;-69
2022/10/21 08:23:15;;;;;;;8.02;1.55;;;;;;;;;;5054842;28;20174;-69
2022/10/21 08:25:55;;;;;;;6.85;1.30;;;;;;;;;;5060203;28;20558;-70
2022/10/21 08:28:23;;;;;;;6.40;1.30;;;;;;;;;;5052966;28;20044;-69
2022/10/21 08:30:50;;;;;;;8.13;1.70;;;;;;;;;;5052115;28;20177;-70
2022/10/21 08:33:17;;;;;;;9.88;1.20;;;;;;;;;;5050170;28;20048;-70
2022/10/21 08:35:44;;;;;;;9.75;1.38;;;;;;;;;;5052837;28;20059;-70
2022/10/21 08:38:11;;;;;;;10.43;1.33;;;;;;;;;;5055521;28;22073;-68
2022/10/21 08:40:39;;;;;;;9.60;1.33;;;;;;;;;;5052385;28;20133;-69
2022/10/21 08:43:10;;;;;;;5.15;1.30;;;;;;;;;;5053631;28;20061;-68
2022/10/21 08:45:40;;;;;;;4.80;1.30;;;;;;;;;;5048219;28;20033;-69
2022/10/21 08:48:10;;;;;;;5.60;1.30;;;;;;;;;;5060971;28;20486;-69
2022/10/21 08:50:39;;;;;;;7.35;1.40;;;;;;;;;;5051860;28;20528;-69
2022/10/21 08:53:12;;;;;;;4.05;1.25;;;;;;;;;;5054178;28;20071;-68
2022/10/21 08:55:40;;;;;;;4.38;1.20;;;;;;;;;;5050195;28;20041;-68
2022/10/21 08:58:12;;;;;;;2.78;0.98;;;;;;;;;;5061178;28;20930;-69
2022/10/21 09:00:46;;;;;;;5.95;1.35;;;;;;;;;;5053312;28;20033;-65
2022/10/21 09:03:31;;;;;;;4.32;1.33;;;;;;;;;;5051655;28;20039;-71
2022/10/21 09:05:58;;;;;;;6.95;1.40;;;;;;;;;;5052415;28;20041;-69
2022/10/21 09:08:32;;;;;;;3.33;1.20;;;;;;;;;;5052548;28;20032;-70
2022/10/21 09:10:59;;;;;;;5.07;1.42;;;;;;;;;;5052086;28;20405;-67
2022/10/21 09:13:25;;;;;;;5.70;1.52;;;;;;;;;;5052772;28;20152;-68
2022/10/21 09:16:04;;;;;;;5.53;1.48;;;;;;;;;;5052946;28;20045;-68
2022/10/21 09:18:41;;;;;;;8.95;1.38;;;;;;;;;;5053267;28;20045;-69
2022/10/21 09:21:13;;;;;;;7.70;1.30;;;;;;;;;;5055144;28;20090;-70
2022/10/21 09:23:58;;;;;;;5.07;1.27;;;;;;;;;;5055775;28;20037;-69
2022/10/21 09:26:33;;;;;;;7.15;1.35;;;;;;;;;;5056350;28;20041;-71
2022/10/21 09:29:13;;;;;;;5.07;1.10;;;;;;;;;;5056788;28;20092;-69
2022/10/21 09:31:40;;;;;;;3.22;1.02;;;;;;;;;;5055570;28;20875;-68
2022/10/21 09:34:15;;;;;;;4.20;1.10;;;;;;;;;;5057449;28;20454;-70
2022/10/21 09:36:46;;;;;;;5.28;1.30;;;;;;;;;;5056967;28;20068;-69
2022/10/21 09:39:18;;;;;;;4.70;1.10;;;;;;;;;;5058612;28;20208;-69
2022/10/21 09:41:46;;;;;;;5.47;1.10;;;;;;;;;;5055444;28;20473;-70
2022/10/21 09:44:16;;;;;;;3.08;1.13;;;;;;;;;;5090450;27;20150;-70
2022/10/21 09:46:44;;;;;;;3.83;0.93;;;;;;;;;;5057935;28;20040;-69
2022/10/21 09:49:17;;;;;;;6.60;1.13;;;;;;;;;;5057857;28;20041;-69
2022/10/21 09:51:44;;;;;;;6.22;1.13;;;;;;;;;;5055616;28;20051;-69
2022/10/21 09:54:19;;;;;;;3.10;1.00;;;;;;;;;;5058109;28;20089;-69
2022/10/21 09:56:57;;;;;;;8.70;1.20;;;;;;;;;;5087823;27;20379;-69
2022/10/21 09:59:24;;;;;;;5.28;1.48;;;;;;;;;;5056514;28;20055;-69
2022/10/21 10:01:51;;;;;;;4.68;1.15;;;;;;;;;;5056717;28;20106;-69
2022/10/21 10:04:33;;;;;;;4.85;1.15;;;;;;;;;;5055441;28;20131;-70
2022/10/21 10:07:18;;;;;;;9.82;1.13;;;;;;;;;;5056051;28;20165;-69
2022/10/21 10:09:46;;;;;;;7.88;1.25;;;;;;;;;;5055731;28;20085;-68
2022/10/21 10:12:14;;;;;;;2.10;0.85;;;;;;;;;;5055980;28;20518;-69
2022/10/21 10:14:42;;;;;;;3.60;1.13;;;;;;;;;;5054870;28;20040;-68
2022/10/21 10:17:30;;;;;;;6.60;1.00;;;;;;;;;;5055866;28;20760;-68
2022/10/21 10:20:06;;;;;;;3.20;0.93;;;;;;;;;;5053144;28;20128;-69
2022/10/21 10:22:36;;;;;;;2.85;0.85;;;;;;;;;;5056513;28;20129;-69
2022/10/21 10:25:11;;;;;;;3.40;0.90;;;;;;;;;;5054305;28;20077;-68
2022/10/21 10:27:50;;;;;;;6.00;1.05;;;;;;;;;;5057282;28;20933;-68
2022/10/21 10:30:17;;;;;;;4.93;0.88;;;;;;;;;;5089109;27;20037;-68
2022/10/21 10:32:45;;;;;;;3.58;1.15;;;;;;;;;;5061951;28;20052;-68
2022/10/21 10:35:30;;;;;;;3.97;1.30;;;;;;;;;;5058237;28;20040;-69
2022/10/21 10:37:57;;;;;;;6.05;1.30;;;;;;;;;;5054399;28;20028;-69
2022/10/21 10:40:38;;;;;;;3.83;0.90;;;;;;;;;;5055711;28;20086;-70
2022/10/21 10:43:13;;;;;;;3.13;1.05;;;;;;;;;;5056146;28;20122;-70
2022/10/21 10:45:46;;;;;;;3.78;1.23;;;;;;;;;;5067329;27;20432;-69
2022/10/21 10:48:12;;;;;;;;;;;;;;;;;;5057779;28;20043;-69
2022/10/21 10:50:42;;;;;;;2.50;0.90;;;;;;;;;;5054129;28;19923;-68
2022/10/21 10:53:28;;;;;;;4.35;1.30;;;;;;;;;;5056141;28;20562;-69
2022/10/21 10:56:09;;;;;;;8.07;1.48;;;;;;;;;;5085471;27;20114;-68
2022/10/21 10:58:37;;;;;;;3.75;1.42;;;;;;;;;;5055612;28;20163;-70
2022/10/21 11:01:08;;;;;;;5.82;1.50;;;;;;;;;;5052908;28;20040;-71
2022/10/21 11:03:38;;;;;;;3.95;1.20;;;;;;;;;;5062626;28;20047;-69
2022/10/21 11:06:18;;;;;;;3.97;1.30;;;;;;;;;;5055973;28;20041;-69
2022/10/21 11:08:54;;;;;;;9.25;1.20;;;;;;;;;;5055375;28;20068;-69
2022/10/21 11:11:25;;;;;;;3.67;1.00;;;;;;;;;;5055745;28;20036;-69
2022/10/21 11:13:52;;;;;;;2.88;0.95;;;;;;;;;;5053886;28;20112;-69
2022/10/21 11:16:27;;;;;;;3.70;1.10;;;;;;;;;;5056163;28;20044;-73
2022/10/21 11:18:57;;;;;;;2.85;1.02;;;;;;;;;;5062860;28;20507;-70
2022/10/21 11:21:29;;;;;;;3.08;0.90;;;;;;;;;;5056707;27;20159;-70
2022/10/21 11:23:59;;;;;;;2.13;0.73;;;;;;;;;;5055940;27;20490;-72
2022/10/21 11:26:33;;;;;;;2.28;0.80;;;;;;;;;;5056524;28;20029;-69
2022/10/21 11:29:00;;;;;;;4.50;0.80;;;;;;;;;;5054953;28;20044;-68
2022/10/21 11:31:26;;;;;;;8.43;1.17;;;;;;;;;;5068265;28;20028;-68
2022/10/21 11:33:57;;;;;;;2.83;0.70;;;;;;;;;;5054268;27;20037;-71
2022/10/21 11:36:23;;;;;;;3.47;0.90;;;;;;;;;;5051877;28;20048;-71
2022/10/21 11:39:02;;;;;;;3.17;1.35;;;;;;;;;;5070405;28;20150;-69
2022/10/21 11:41:38;;;;;;;3.28;0.82;;;;;;;;;;5055247;27;20048;-70
2022/10/21 11:44:15;;;;;;;3.08;0.95;;;;;;;;;;5053574;27;20923;-70
2022/10/21 11:46:54;;;;;;;1.55;0.63;;;;;;;;;;5053975;28;20036;-70
2022/10/21 11:49:30;;;;;;;3.80;1.30;;;;;;;;;;5068271;28;20064;-70
2022/10/21 11:52:06;;;;;;;2.20;0.73;;;;;;;;;;5057450;27;20090;-69
2022/10/21 11:54:40;;;;;;;1.98;0.68;;;;;;;;;;5051780;28;20047;-70
2022/10/21 11:57:06;;;;;;;2.30;0.90;;;;;;;;;;5052386;28;20051;-69
2022/10/21 11:59:53;;;;;;;4.43;1.00;;;;;;;;;;5050572;28;20131;-70
2022/10/21 12:02:35;;;;;;;2.85;1.00;;;;;;;;;;5066757;27;20067;-72
2022/10/21 12:05:20;;;;;;;3.05;0.65;;;;;;;;;;5053185;27;20066;-70
2022/10/21 12:08:07;;;;;;;5.35;0.90;;;;;;;;;;5055199;28;20127;-70
2022/10/21 12:10:52;;;;;;;4.60;1.00;;;;;;;;;;5051823;28;20127;-69
2022/10/21 12:13:24;;;;;;;1.92;0.70;;;;;;;;;;5054531;27;20049;-70
2022/10/21 12:15:53;;;;;;;2.08;0.68;;;;;;;;;;5050543;27;20183;-70
2022/10/21 12:18:22;;;;;;;4.80;1.00;;;;;;;;;;5056469;28;20100;-70
2022/10/21 12:20:50;;;;;;;2.30;0.80;;;;;;;;;;5055488;28;20381;-70
2022/10/21 12:23:18;;;;;;;3.28;1.08;;;;;;;;;;5057684;28;20044;-71
2022/10/21 12:25:48;;;;;;;3.13;0.93;;;;;;;;;;5052200;28;20040;-70
2022/10/21 12:28:29;;;;;;;2.55;0.90;;;;;;;;;;5054734;27;20045;-71
2022/10/21 12:31:16;;;;;;;3.45;1.30;;;;;;;;;;5052264;28;20102;-72
2022/10/21 12:33:44;;;;;;;3.67;1.10;;;;;;;;;;5053157;27;20060;-70
2022/10/21 12:36:22;;;;;;;4.53;1.25;;;;;;;;;;5053552;28;20535;-71
2022/10/21 12:38:49;;;;;;;4.78;1.55;;;;;;;;;;5052395;28;20040;-72
2022/10/21 12:41:35;;;;;;;3.67;1.52;;;;;;;;;;5079775;27;20052;-69
2022/10/21 12:44:05;;;;;;;2.35;1.00;;;;;;;;;;5051528;28;20457;-67
2022/10/21 12:46:38;;;;;;;4.35;1.75;;;;;;;;;;5054610;28;20509;-69
2022/10/21 12:49:05;;;;;;;;;;;;;;;;;;5054727;28;20089;-66
2022/10/21 12:51:32;;;;;;;4.15;1.92;;;;;;;;;;5051942;28;21575;-68
2022/10/21 12:54:02;;;;;;;4.95;2.10;;;;;;;;;;5052916;28;20400;-70
2022/10/21 12:56:36;;;;;;;3.78;1.70;;;;;;;;;;5058467;28;20189;-68
2022/10/21 12:59:05;;;;;;;6.82;2.28;;;;;;;;;;5056096;28;20120;-69
2022/10/21 13:01:34;;;;;;;4.35;2.20;;;;;;;;;;5088161;27;20040;-70
2022/10/21 13:04:01;;;;;;;6.78;1.80;;;;;;;;;;5089160;27;20068;-69
2022/10/21 13:06:46;;;;;;;7.35;1.92;;;;;;;;;;5054899;28;20182;-67
2022/10/21 13:09:31;;;;;;;7.25;1.92;;;;;;;;;;5058119;28;20128;-68
2022/10/21 13:12:10;;;;;;;4.63;2.10;;;;;;;;;;5056048;28;20134;-70
2022/10/21 13:14:41;;;;;;;4.32;1.77;;;;;;;;;;5059063;28;20096;-70
2022/10/21 13:17:36;;;;;;;5.10;2.05;;;;;;;;;;5058754;28;20591;-69
2022/10/21 13:20:14;;;;;;;5.47;2.00;;;;;;;;;;5031378;28;20043;-68
2022/10/21 13:22:42;;;;;;;3.30;1.60;;;;;;;;;;5059941;28;20122;-69
2022/10/21 13:25:10;;;;;;;3.08;1.35;;;;;;;;;;5058690;28;20082;-68
2022/10/21 13:27:38;;;;;;;3.17;1.08;;;;;;;;;;5088436;27;20136;-69
2022/10/21 13:30:07;;;;;;;3.55;1.60;;;;;;;;;;5058823;28;20047;-69
2022/10/21 13:32:34;;;;;;;6.18;1.48;;;;;;;;;;5057534;28;20094;-69
2022/10/21 13:35:01;;;;;;;4.53;1.60;;;;;;;;;;5057603;28;20635;-69
2022/10/21 13:37:31;;;;;;;5.57;1.30;;;;;;;;;;5057554;28;20753;-67
2022/10/21 13:39:59;;;;;;;4.47;1.77;;;;;;;;;;5056796;28;20032;-68
2022/10/21 13:42:31;;;;;;;2.90;1.35;;;;;;;;;;5056515;28;20032;-68
2022/10/21 13:45:01;;;;;;;4.10;1.83;;;;;;;;;;5055697;28;20036;-69
2022/10/21 13:47:29;;;;;;;4.43;2.13;;;;;;;;;;5057737;28;20043;-68
2022/10/21 13:50:14;;;;;;;4.13;1.67;;;;;;;;;;5056007;28;20051;-68
2022/10/21 13:52:44;;;;;;;4.32;1.88;;;;;;;;;;5056750;28;20045;-69
2022/10/21 13:55:19;;;;;;;4.85;2.13;;;;;;;;;;5054416;28;20068;-69
2022/10/21 13:57:48;;;;;;;5.38;1.55;;;;;;;;;;5057900;28;20044;-70
2022/10/21 14:00:20;;;;;;;6.03;2.30;;;;;;;;;;5056621;28;20093;-68
2022/10/21 14:02:51;;;;;;;3.83;2.10;;;;;;;;;;5057491;28;20064;-69
2022/10/21 14:05:27;;;;;;;5.40;2.60;;;;;;;;;;5057762;28;20038;-69
2022/10/21 14:07:54;;;;;;;5.38;2.83;;;;;;;;;;5056307;28;20406;-68
2022/10/21 14:10:21;;;;;;;6.28;2.75;;;;;;;;;;5057739;28;20756;-68
2022/10/21 14:12:48;;;;;;;6.70;2.80;;;;;;;;;;5046398;28;20040;-68
2022/10/21 14:15:20;;;;;;;6.60;3.05;;;;;;;;;;5055389;28;20075;-68
2022/10/21 14:18:05;;;;;;;8.57;3.28;;;;;;;;;;5056468;28;20061;-68
2022/10/21 14:20:34;;;;;;;5.75;2.97;;;;;;;;;;5057377;28;20032;-68
2022/10/21 14:23:02;;;;;;;5.82;3.10;;;;;;;;;;5057565;28;20044;-68
2022/10/21 14:25:30;;;;;;;7.30;3.08;;;;;;;;;;5057380;28;20102;-68
2022/10/21 14:27:58;;;;;;;6.32;3.40;;;;;;;;;;5056823;28;20035;-69
2022/10/21 14:30:27;;;;;;;6.03;2.15;;;;;;;;;;5057455;28;20051;-69
2022/10/21 14:32:56;;;;;;;5.22;2.22;;;;;;;;;;5055623;28;20778;-69
2022/10/21 14:35:25;;;;;;;7.15;3.92;;;;;;;;;;5055858;28;20616;-69
2022/10/21 14:37:53;;;;;;;5.82;2.85;;;;;;;;;;5055377;28;20043;-69
2022/10/21 14:40:25;;;;;;;9.55;4.85;;;;;;;;;;5054605;28;20024;-70
2022/10/21 14:42:52;;;;;;;9.07;5.00;;;;;;;;;;5055618;28;20040;-70
2022/10/21 14:45:23;;;;;;;11.07;5.90;;;;;;;;;;5056135;28;20136;-69
2022/10/21 14:47:56;;;;;;;12.27;6.28;;;;;;;;;;5056376;28;20036;-69
2022/10/21 14:50:23;;;;;;;12.25;6.22;;;;;;;;;;5055077;28;20064;-70
2022/10/21 14:52:52;;;;;;;9.65;5.63;;;;;;;;;;5071762;28;20045;-69
2022/10/21 14:55:27;;;;;;;9.50;4.80;;;;;;;;;;5056001;27;20041;-69
2022/10/21 14:57:59;;;;;;;8.90;5.75;;;;;;;;;;5054667;27;20446;-70
2022/10/21 15:00:26;;;;;;;10.43;5.95;;;;;;;;;;5056826;27;20041;-68